Skokie, IL (60076)

11:48 PM CDT en Abril 25, 2015 (GMT -0500)
Skokie | | Change Station
CLOSE
Current Station
Estación meteorológica personal
Location: Skokie, IL
Altura: 627 ft
Estaciones meteorológicas cercanas

Alt 627 ft 42.03 °N, 87.73 °W | Updated 3 minutes ago

Nublado
Nublado
38.8 ° F
Sensación térmica 39 ° F
N
2.2
Viento Variable Viento desde NE

Hoy
Alta -- | Baja -- ° F
--% Posibilidad de precipitaciones
Ayer
Alta -- | Baja -- ° F
Precip. -- pul
5:55 AM 7:42 PM
Cuarto creciente, 52% visible
Presión 29.85 pul
Visibilidad 10.0 Millas
Nubes Nublado 9000 ft
Vientos helados 39 ° F
Punto de rocío 34 ° F
Humedad 84%
Precipitaciones 0.11 pul
Espesor de la nieve No disponible.
UV 0 de una escala de 12
Polen 1.40 de una escala de 12
Calidad del aire No disponible.
Flu Activity Regional
METAR KORD 260351Z 03009KT 10SM OVC090 06/M01 A2984 RMK AO2 SLP107 T00561011

More Conditions Fewer Conditions

Presión 29.85 pul
Visibilidad 10.0 Millas
Nubes Nublado 9000 ft
Vientos helados 39 ° F
Punto de rocío 34 ° F
Humedad 84%
Precipitaciones 0.11 pul
Espesor de la nieve No disponible.
UV 0 de una escala de 12
Polen 1.40 de una escala de 12
Calidad del aire No disponible.
Flu Activity Regional
METAR KORD 260351Z 03009KT 10SM OVC090 06/M01 A2984 RMK AO2 SLP107 T00561011

More Conditions Fewer Conditions

The full scope of the disaster following a powerful 7.8-magnitude earthquake in Nepal may not come into view for days, but global charities are already sending emergency aid. Click to see how you can help.

10-Day Weather Forecast

Almanac

Astronomía

Apr. 25, 2015 Salida Puesta
Hora real
Crepúsculo civil
Crepúsculo náutico
Crepúsculo astronómico
Luna
Horas de luz
Horas de luz
Tomorrow will be .
, % of the Moon is Illuminated

Extremos de hoy

Máximos del estado Bajos del estado

Community

WunderPhotos

Upload Photos

1,816,938 ¡fotos cargadas!

WunderBlogs® & News

Nearby

Calidad del aire

  Calidad del aire Índice AQ Contaminante
Not available.

Grosos de nieve

Estación Profundido Altura

Actividad de terremotos

Ciudad Distance Mag. Tiempo y dato
Magnitud mínima muestra es 2,5.

Temperaturas de aguas costeras

Lugar Temperatura

Stations

Estaciones meteorológicas cercanas

Ubicación de la estación Temp. Vientos helados Punto de rocío Humedad Viento Precip. Alt Actualizado Tipo